sensor_id;sensor_type;location;lat;lon;timestamp;P1;durP1;ratioP1;P2;durP2;ratioP2
65463;SDS011;52063;45.110;9.870;2022-07-10T00:01:47;1.75;;;1.10;;
65463;SDS011;52063;45.110;9.870;2022-07-10T00:04:13;2.40;;;0.73;;
65463;SDS011;52063;45.110;9.870;2022-07-10T00:06:39;2.50;;;1.10;;
65463;SDS011;52063;45.110;9.870;2022-07-10T00:09:07;3.78;;;1.00;;
65463;SDS011;52063;45.110;9.870;2022-07-10T00:11:32;1.10;;;0.83;;
65463;SDS011;52063;45.110;9.870;2022-07-10T00:13:58;0.90;;;0.70;;
65463;SDS011;52063;45.110;9.870;2022-07-10T00:16:23;5.80;;;0.90;;
65463;SDS011;52063;45.110;9.870;2022-07-10T00:18:50;2.85;;;1.10;;
65463;SDS011;52063;45.110;9.870;2022-07-10T00:21:16;2.47;;;0.77;;
65463;SDS011;52063;45.110;9.870;2022-07-10T00:23:41;1.43;;;0.90;;
65463;SDS011;52063;45.110;9.870;2022-07-10T00:26:07;1.25;;;0.90;;
65463;SDS011;52063;45.110;9.870;2022-07-10T00:28:34;4.88;;;0.90;;
65463;SDS011;52063;45.110;9.870;2022-07-10T00:31:00;3.20;;;0.95;;
65463;SDS011;52063;45.110;9.870;2022-07-10T00:33:25;2.03;;;0.83;;
65463;SDS011;52063;45.110;9.870;2022-07-10T00:35:53;1.30;;;0.90;;
65463;SDS011;52063;45.110;9.870;2022-07-10T00:38:18;1.50;;;1.10;;
65463;SDS011;52063;45.110;9.870;2022-07-10T00:40:44;1.40;;;0.87;;
65463;SDS011;52063;45.110;9.870;2022-07-10T00:43:09;1.73;;;0.60;;
65463;SDS011;52063;45.110;9.870;2022-07-10T00:45:35;2.30;;;0.70;;
65463;SDS011;52063;45.110;9.870;2022-07-10T00:48:00;3.87;;;1.00;;
65463;SDS011;52063;45.110;9.870;2022-07-10T00:50:26;3.20;;;1.00;;
65463;SDS011;52063;45.110;9.870;2022-07-10T00:52:51;1.77;;;0.82;;
65463;SDS011;52063;45.110;9.870;2022-07-10T00:55:17;1.73;;;0.97;;
65463;SDS011;52063;45.110;9.870;2022-07-10T00:57:42;5.10;;;0.93;;
65463;SDS011;52063;45.110;9.870;2022-07-10T01:00:08;1.85;;;0.80;;
65463;SDS011;52063;45.110;9.870;2022-07-10T01:02:37;1.08;;;0.70;;
65463;SDS011;52063;45.110;9.870;2022-07-10T01:05:08;3.67;;;1.07;;
65463;SDS011;52063;45.110;9.870;2022-07-10T01:07:33;1.95;;;0.60;;
65463;SDS011;52063;45.110;9.870;2022-07-10T01:09:59;1.83;;;0.80;;
65463;SDS011;52063;45.110;9.870;2022-07-10T01:12:25;1.50;;;0.77;;
65463;SDS011;52063;45.110;9.870;2022-07-10T01:14:52;2.63;;;1.13;;
65463;SDS011;52063;45.110;9.870;2022-07-10T01:17:17;2.63;;;1.30;;
65463;SDS011;52063;45.110;9.870;2022-07-10T01:19:44;2.17;;;0.90;;
65463;SDS011;52063;45.110;9.870;2022-07-10T01:22:10;2.47;;;1.17;;
65463;SDS011;52063;45.110;9.870;2022-07-10T01:24:36;2.55;;;1.10;;
65463;SDS011;52063;45.110;9.870;2022-07-10T01:27:01;2.90;;;1.00;;
65463;SDS011;52063;45.110;9.870;2022-07-10T01:29:27;2.53;;;1.33;;
65463;SDS011;52063;45.110;9.870;2022-07-10T01:31:54;1.70;;;1.13;;
65463;SDS011;52063;45.110;9.870;2022-07-10T01:34:19;3.60;;;1.42;;
65463;SDS011;52063;45.110;9.870;2022-07-10T01:36:45;1.90;;;1.00;;
65463;SDS011;52063;45.110;9.870;2022-07-10T01:39:11;2.30;;;1.50;;
65463;SDS011;52063;45.110;9.870;2022-07-10T01:41:36;2.28;;;1.13;;
65463;SDS011;52063;45.110;9.870;2022-07-10T01:44:01;4.00;;;1.40;;
65463;SDS011;52063;45.110;9.870;2022-07-10T01:46:27;2.00;;;1.50;;
65463;SDS011;52063;45.110;9.870;2022-07-10T01:48:53;2.35;;;1.25;;
65463;SDS011;52063;45.110;9.870;2022-07-10T01:51:21;2.03;;;1.30;;
65463;SDS011;52063;45.110;9.870;2022-07-10T01:53:47;2.63;;;1.10;;
65463;SDS011;52063;45.110;9.870;2022-07-10T01:56:13;2.00;;;1.00;;
65463;SDS011;52063;45.110;9.870;2022-07-10T01:58:39;2.67;;;1.20;;
65463;SDS011;52063;45.110;9.870;2022-07-10T02:01:05;1.57;;;1.07;;
65463;SDS011;52063;45.110;9.870;2022-07-10T02:03:31;2.40;;;1.50;;
65463;SDS011;52063;45.110;9.870;2022-07-10T02:06:15;2.70;;;1.50;;
65463;SDS011;52063;45.110;9.870;2022-07-10T02:08:41;5.43;;;1.27;;
65463;SDS011;52063;45.110;9.870;2022-07-10T02:11:06;3.05;;;1.45;;
65463;SDS011;52063;45.110;9.870;2022-07-10T02:13:32;4.87;;;1.33;;
65463;SDS011;52063;45.110;9.870;2022-07-10T02:15:58;1.67;;;1.40;;
65463;SDS011;52063;45.110;9.870;2022-07-10T02:18:23;2.33;;;1.23;;
65463;SDS011;52063;45.110;9.870;2022-07-10T02:20:50;4.45;;;1.40;;
65463;SDS011;52063;45.110;9.870;2022-07-10T02:23:16;6.47;;;1.70;;
65463;SDS011;52063;45.110;9.870;2022-07-10T02:25:41;2.67;;;1.67;;
65463;SDS011;52063;45.110;9.870;2022-07-10T02:28:09;1.80;;;1.43;;
65463;SDS011;52063;45.110;9.870;2022-07-10T02:30:35;4.53;;;1.63;;
65463;SDS011;52063;45.110;9.870;2022-07-10T02:33:01;2.70;;;1.40;;
65463;SDS011;52063;45.110;9.870;2022-07-10T02:35:26;4.30;;;1.33;;
65463;SDS011;52063;45.110;9.870;2022-07-10T02:37:52;3.00;;;1.50;;
65463;SDS011;52063;45.110;9.870;2022-07-10T02:40:17;1.50;;;1.40;;
65463;SDS011;52063;45.110;9.870;2022-07-10T02:42:43;2.43;;;1.30;;
65463;SDS011;52063;45.110;9.870;2022-07-10T02:45:08;3.00;;;1.43;;
65463;SDS011;52063;45.110;9.870;2022-07-10T02:47:34;2.47;;;1.30;;
65463;SDS011;52063;45.110;9.870;2022-07-10T02:49:59;3.53;;;1.30;;
65463;SDS011;52063;45.110;9.870;2022-07-10T02:52:25;2.53;;;1.30;;
65463;SDS011;52063;45.110;9.870;2022-07-10T02:54:51;2.43;;;1.30;;
65463;SDS011;52063;45.110;9.870;2022-07-10T02:57:17;3.15;;;1.30;;
65463;SDS011;52063;45.110;9.870;2022-07-10T02:59:43;2.97;;;1.50;;
65463;SDS011;52063;45.110;9.870;2022-07-10T03:02:08;4.32;;;1.52;;
65463;SDS011;52063;45.110;9.870;2022-07-10T03:04:33;5.40;;;1.70;;
65463;SDS011;52063;45.110;9.870;2022-07-10T03:06:59;3.17;;;1.47;;
65463;SDS011;52063;45.110;9.870;2022-07-10T03:09:24;1.93;;;1.27;;
65463;SDS011;52063;45.110;9.870;2022-07-10T03:11:50;1.85;;;1.10;;
65463;SDS011;52063;45.110;9.870;2022-07-10T03:14:16;2.50;;;1.15;;
65463;SDS011;52063;45.110;9.870;2022-07-10T03:16:42;5.23;;;1.73;;
65463;SDS011;52063;45.110;9.870;2022-07-10T03:19:08;1.58;;;1.10;;
65463;SDS011;52063;45.110;9.870;2022-07-10T03:21:33;3.33;;;1.20;;
65463;SDS011;52063;45.110;9.870;2022-07-10T03:23:59;3.97;;;1.70;;
65463;SDS011;52063;45.110;9.870;2022-07-10T03:26:24;3.17;;;1.60;;
65463;SDS011;52063;45.110;9.870;2022-07-10T03:28:50;4.63;;;1.73;;
65463;SDS011;52063;45.110;9.870;2022-07-10T03:31:15;2.17;;;1.50;;
65463;SDS011;52063;45.110;9.870;2022-07-10T03:33:41;4.17;;;1.50;;
65463;SDS011;52063;45.110;9.870;2022-07-10T03:36:06;3.00;;;1.77;;
65463;SDS011;52063;45.110;9.870;2022-07-10T03:38:32;4.28;;;1.60;;
65463;SDS011;52063;45.110;9.870;2022-07-10T03:40:57;3.17;;;1.87;;
65463;SDS011;52063;45.110;9.870;2022-07-10T03:43:23;3.70;;;1.80;;
65463;SDS011;52063;45.110;9.870;2022-07-10T03:45:49;4.00;;;1.50;;
65463;SDS011;52063;45.110;9.870;2022-07-10T03:48:15;3.97;;;1.70;;
65463;SDS011;52063;45.110;9.870;2022-07-10T03:50:41;6.13;;;1.50;;
65463;SDS011;52063;45.110;9.870;2022-07-10T03:53:06;3.57;;;1.87;;
65463;SDS011;52063;45.110;9.870;2022-07-10T03:55:32;7.63;;;1.60;;
65463;SDS011;52063;45.110;9.870;2022-07-10T03:57:57;3.63;;;1.30;;
65463;SDS011;52063;45.110;9.870;2022-07-10T04:00:24;2.85;;;1.80;;
65463;SDS011;52063;45.110;9.870;2022-07-10T04:02:55;3.50;;;1.40;;
65463;SDS011;52063;45.110;9.870;2022-07-10T04:05:25;6.13;;;1.75;;
65463;SDS011;52063;45.110;9.870;2022-07-10T04:07:51;3.20;;;1.77;;
65463;SDS011;52063;45.110;9.870;2022-07-10T04:10:17;5.37;;;1.80;;
65463;SDS011;52063;45.110;9.870;2022-07-10T04:12:43;7.53;;;1.80;;
65463;SDS011;52063;45.110;9.870;2022-07-10T04:15:09;5.22;;;2.30;;
65463;SDS011;52063;45.110;9.870;2022-07-10T04:17:35;4.97;;;2.00;;
65463;SDS011;52063;45.110;9.870;2022-07-10T04:20:00;4.85;;;2.28;;
65463;SDS011;52063;45.110;9.870;2022-07-10T04:22:29;4.30;;;2.23;;
65463;SDS011;52063;45.110;9.870;2022-07-10T04:24:55;5.55;;;2.30;;
65463;SDS011;52063;45.110;9.870;2022-07-10T04:27:20;5.87;;;2.10;;
65463;SDS011;52063;45.110;9.870;2022-07-10T04:29:46;5.10;;;2.20;;
65463;SDS011;52063;45.110;9.870;2022-07-10T04:32:11;6.60;;;2.13;;
65463;SDS011;52063;45.110;9.870;2022-07-10T04:34:37;5.40;;;1.58;;
65463;SDS011;52063;45.110;9.870;2022-07-10T04:37:04;5.78;;;2.05;;
65463;SDS011;52063;45.110;9.870;2022-07-10T04:39:30;6.30;;;2.50;;
65463;SDS011;52063;45.110;9.870;2022-07-10T04:41:55;4.67;;;1.83;;
65463;SDS011;52063;45.110;9.870;2022-07-10T04:44:20;3.00;;;1.37;;
65463;SDS011;52063;45.110;9.870;2022-07-10T04:46:46;2.63;;;1.23;;
65463;SDS011;52063;45.110;9.870;2022-07-10T04:49:11;5.27;;;1.20;;
65463;SDS011;52063;45.110;9.870;2022-07-10T04:51:37;2.15;;;1.10;;
65463;SDS011;52063;45.110;9.870;2022-07-10T04:54:03;6.33;;;1.57;;
65463;SDS011;52063;45.110;9.870;2022-07-10T04:56:28;3.77;;;1.77;;
65463;SDS011;52063;45.110;9.870;2022-07-10T04:58:54;4.88;;;1.38;;
65463;SDS011;52063;45.110;9.870;2022-07-10T05:01:19;2.33;;;1.77;;
65463;SDS011;52063;45.110;9.870;2022-07-10T05:03:45;3.63;;;1.95;;
65463;SDS011;52063;45.110;9.870;2022-07-10T05:06:11;1.90;;;1.50;;
65463;SDS011;52063;45.110;9.870;2022-07-10T05:08:36;3.60;;;1.80;;
65463;SDS011;52063;45.110;9.870;2022-07-10T05:11:02;7.30;;;2.40;;
65463;SDS011;52063;45.110;9.870;2022-07-10T05:13:27;6.90;;;1.90;;
65463;SDS011;52063;45.110;9.870;2022-07-10T05:15:53;3.10;;;2.10;;
65463;SDS011;52063;45.110;9.870;2022-07-10T05:18:18;5.73;;;1.70;;
65463;SDS011;52063;45.110;9.870;2022-07-10T05:20:43;4.60;;;1.88;;
65463;SDS011;52063;45.110;9.870;2022-07-10T05:23:10;4.93;;;1.73;;
65463;SDS011;52063;45.110;9.870;2022-07-10T05:25:37;6.13;;;1.88;;
65463;SDS011;52063;45.110;9.870;2022-07-10T05:28:03;3.88;;;1.95;;
65463;SDS011;52063;45.110;9.870;2022-07-10T05:30:29;6.53;;;1.90;;
65463;SDS011;52063;45.110;9.870;2022-07-10T05:32:55;3.37;;;2.07;;
65463;SDS011;52063;45.110;9.870;2022-07-10T05:35:20;4.03;;;2.40;;
65463;SDS011;52063;45.110;9.870;2022-07-10T05:37:46;8.53;;;2.60;;
65463;SDS011;52063;45.110;9.870;2022-07-10T05:40:11;6.80;;;2.50;;
65463;SDS011;52063;45.110;9.870;2022-07-10T05:42:37;6.43;;;2.10;;
65463;SDS011;52063;45.110;9.870;2022-07-10T05:45:03;3.83;;;1.87;;
65463;SDS011;52063;45.110;9.870;2022-07-10T05:47:30;3.40;;;2.10;;
65463;SDS011;52063;45.110;9.870;2022-07-10T05:49:56;4.43;;;1.80;;
65463;SDS011;52063;45.110;9.870;2022-07-10T05:52:21;3.20;;;1.70;;
65463;SDS011;52063;45.110;9.870;2022-07-10T05:54:47;5.60;;;1.70;;
65463;SDS011;52063;45.110;9.870;2022-07-10T05:57:12;3.63;;;1.80;;
65463;SDS011;52063;45.110;9.870;2022-07-10T05:59:38;5.50;;;1.40;;
65463;SDS011;52063;45.110;9.870;2022-07-10T06:02:04;4.40;;;1.90;;
65463;SDS011;52063;45.110;9.870;2022-07-10T06:04:29;2.78;;;1.88;;
65463;SDS011;52063;45.110;9.870;2022-07-10T06:06:55;6.75;;;1.70;;
65463;SDS011;52063;45.110;9.870;2022-07-10T06:09:21;4.43;;;1.67;;
65463;SDS011;52063;45.110;9.870;2022-07-10T06:11:46;4.60;;;1.90;;
65463;SDS011;52063;45.110;9.870;2022-07-10T06:14:13;2.92;;;1.65;;
65463;SDS011;52063;45.110;9.870;2022-07-10T06:16:38;4.20;;;2.30;;
65463;SDS011;52063;45.110;9.870;2022-07-10T06:19:04;6.97;;;2.20;;
65463;SDS011;52063;45.110;9.870;2022-07-10T06:21:30;7.90;;;2.20;;
65463;SDS011;52063;45.110;9.870;2022-07-10T06:23:56;2.50;;;1.83;;
65463;SDS011;52063;45.110;9.870;2022-07-10T06:26:21;3.97;;;1.80;;
65463;SDS011;52063;45.110;9.870;2022-07-10T06:28:47;6.00;;;1.90;;
65463;SDS011;52063;45.110;9.870;2022-07-10T06:31:13;3.00;;;1.80;;
65463;SDS011;52063;45.110;9.870;2022-07-10T06:33:38;4.20;;;2.57;;
65463;SDS011;52063;45.110;9.870;2022-07-10T06:36:04;3.83;;;2.20;;
65463;SDS011;52063;45.110;9.870;2022-07-10T06:38:30;8.63;;;2.10;;
65463;SDS011;52063;45.110;9.870;2022-07-10T06:40:55;5.97;;;2.53;;
65463;SDS011;52063;45.110;9.870;2022-07-10T06:43:21;4.53;;;2.50;;
65463;SDS011;52063;45.110;9.870;2022-07-10T06:45:46;4.63;;;2.43;;
65463;SDS011;52063;45.110;9.870;2022-07-10T06:48:12;3.58;;;2.35;;
65463;SDS011;52063;45.110;9.870;2022-07-10T06:50:38;2.53;;;1.10;;
65463;SDS011;52063;45.110;9.870;2022-07-10T06:53:03;6.53;;;2.10;;
65463;SDS011;52063;45.110;9.870;2022-07-10T06:55:29;3.50;;;1.55;;
65463;SDS011;52063;45.110;9.870;2022-07-10T06:57:55;3.60;;;1.67;;
65463;SDS011;52063;45.110;9.870;2022-07-10T07:00:21;3.70;;;2.07;;
65463;SDS011;52063;45.110;9.870;2022-07-10T07:02:47;2.65;;;1.70;;
65463;SDS011;52063;45.110;9.870;2022-07-10T07:05:13;4.38;;;2.67;;
65463;SDS011;52063;45.110;9.870;2022-07-10T07:07:39;4.43;;;2.17;;
65463;SDS011;52063;45.110;9.870;2022-07-10T07:10:04;6.78;;;2.50;;
65463;SDS011;52063;45.110;9.870;2022-07-10T07:12:31;9.37;;;3.47;;
65463;SDS011;52063;45.110;9.870;2022-07-10T07:14:56;6.70;;;3.42;;
65463;SDS011;52063;45.110;9.870;2022-07-10T07:17:22;5.70;;;3.30;;
65463;SDS011;52063;45.110;9.870;2022-07-10T07:19:49;4.78;;;2.70;;
65463;SDS011;52063;45.110;9.870;2022-07-10T07:22:33;7.43;;;2.60;;
65463;SDS011;52063;45.110;9.870;2022-07-10T07:25:17;5.10;;;2.40;;
65463;SDS011;52063;45.110;9.870;2022-07-10T07:27:43;6.32;;;3.70;;
65463;SDS011;52063;45.110;9.870;2022-07-10T07:30:09;5.57;;;3.30;;
65463;SDS011;52063;45.110;9.870;2022-07-10T07:32:37;5.47;;;3.20;;
65463;SDS011;52063;45.110;9.870;2022-07-10T07:35:04;8.55;;;3.63;;
65463;SDS011;52063;45.110;9.870;2022-07-10T07:37:36;7.35;;;3.13;;
65463;SDS011;52063;45.110;9.870;2022-07-10T07:40:09;8.33;;;3.23;;
65463;SDS011;52063;45.110;9.870;2022-07-10T07:42:36;6.97;;;3.30;;
65463;SDS011;52063;45.110;9.870;2022-07-10T07:45:02;6.85;;;2.78;;
65463;SDS011;52063;45.110;9.870;2022-07-10T07:47:29;7.43;;;2.73;;
65463;SDS011;52063;45.110;9.870;2022-07-10T07:49:55;5.20;;;2.55;;
65463;SDS011;52063;45.110;9.870;2022-07-10T07:52:21;4.72;;;2.83;;
65463;SDS011;52063;45.110;9.870;2022-07-10T07:54:48;8.03;;;2.73;;
65463;SDS011;52063;45.110;9.870;2022-07-10T07:57:14;6.30;;;2.70;;
65463;SDS011;52063;45.110;9.870;2022-07-10T07:59:40;4.82;;;2.70;;
65463;SDS011;52063;45.110;9.870;2022-07-10T08:02:05;4.27;;;2.10;;
65463;SDS011;52063;45.110;9.870;2022-07-10T08:04:31;4.28;;;2.42;;
65463;SDS011;52063;45.110;9.870;2022-07-10T08:06:57;4.50;;;2.33;;
65463;SDS011;52063;45.110;9.870;2022-07-10T08:09:22;5.40;;;2.28;;
65463;SDS011;52063;45.110;9.870;2022-07-10T08:11:48;3.00;;;2.00;;
65463;SDS011;52063;45.110;9.870;2022-07-10T08:14:13;3.83;;;2.30;;
65463;SDS011;52063;45.110;9.870;2022-07-10T08:16:39;4.60;;;2.47;;
65463;SDS011;52063;45.110;9.870;2022-07-10T08:19:05;9.20;;;2.40;;
65463;SDS011;52063;45.110;9.870;2022-07-10T08:21:31;8.60;;;2.30;;
65463;SDS011;52063;45.110;9.870;2022-07-10T08:23:57;4.65;;;2.50;;
65463;SDS011;52063;45.110;9.870;2022-07-10T08:26:22;7.13;;;2.67;;
65463;SDS011;52063;45.110;9.870;2022-07-10T08:28:48;5.30;;;2.58;;
65463;SDS011;52063;45.110;9.870;2022-07-10T08:31:13;9.33;;;2.17;;
65463;SDS011;52063;45.110;9.870;2022-07-10T08:33:39;6.03;;;2.30;;
65463;SDS011;52063;45.110;9.870;2022-07-10T08:36:04;3.10;;;1.90;;
65463;SDS011;52063;45.110;9.870;2022-07-10T08:38:30;2.77;;;1.30;;
65463;SDS011;52063;45.110;9.870;2022-07-10T08:40:56;3.90;;;1.85;;
65463;SDS011;52063;45.110;9.870;2022-07-10T08:43:22;9.80;;;1.63;;
65463;SDS011;52063;45.110;9.870;2022-07-10T08:45:50;7.00;;;1.70;;
65463;SDS011;52063;45.110;9.870;2022-07-10T08:48:15;4.05;;;1.60;;
65463;SDS011;52063;45.110;9.870;2022-07-10T08:50:47;7.32;;;1.63;;
65463;SDS011;52063;45.110;9.870;2022-07-10T08:53:15;9.05;;;1.55;;
65463;SDS011;52063;45.110;9.870;2022-07-10T08:55:45;3.72;;;1.58;;
65463;SDS011;52063;45.110;9.870;2022-07-10T08:58:12;6.33;;;2.00;;
65463;SDS011;52063;45.110;9.870;2022-07-10T09:00:38;3.70;;;1.23;;
65463;SDS011;52063;45.110;9.870;2022-07-10T09:03:03;8.50;;;1.47;;
65463;SDS011;52063;45.110;9.870;2022-07-10T09:05:29;4.20;;;1.33;;
65463;SDS011;52063;45.110;9.870;2022-07-10T09:07:55;6.10;;;1.50;;
65463;SDS011;52063;45.110;9.870;2022-07-10T09:10:23;7.10;;;1.30;;
65463;SDS011;52063;45.110;9.870;2022-07-10T09:12:57;2.45;;;0.93;;
65463;SDS011;52063;45.110;9.870;2022-07-10T09:15:27;3.83;;;1.42;;
65463;SDS011;52063;45.110;9.870;2022-07-10T09:17:58;1.98;;;0.98;;
65463;SDS011;52063;45.110;9.870;2022-07-10T09:22:55;1.95;;;0.88;;
65463;SDS011;52063;45.110;9.870;2022-07-10T09:25:21;2.85;;;1.10;;
65463;SDS011;52063;45.110;9.870;2022-07-10T09:27:53;3.43;;;1.10;;
65463;SDS011;52063;45.110;9.870;2022-07-10T09:30:35;3.67;;;1.23;;
65463;SDS011;52063;45.110;9.870;2022-07-10T09:33:21;3.20;;;0.90;;
65463;SDS011;52063;45.110;9.870;2022-07-10T09:41:24;3.77;;;1.20;;
65463;SDS011;52063;45.110;9.870;2022-07-10T09:43:57;3.97;;;1.25;;
65463;SDS011;52063;45.110;9.870;2022-07-10T09:46:25;6.80;;;1.20;;
65463;SDS011;52063;45.110;9.870;2022-07-10T09:51:37;4.90;;;1.40;;
65463;SDS011;52063;45.110;9.870;2022-07-10T09:54:05;4.37;;;1.00;;
65463;SDS011;52063;45.110;9.870;2022-07-10T09:56:41;3.85;;;0.93;;
65463;SDS011;52063;45.110;9.870;2022-07-10T09:59:11;3.25;;;1.10;;
65463;SDS011;52063;45.110;9.870;2022-07-10T10:01:41;2.05;;;1.08;;
65463;SDS011;52063;45.110;9.870;2022-07-10T10:04:08;3.03;;;1.50;;
65463;SDS011;52063;45.110;9.870;2022-07-10T10:06:34;3.23;;;1.40;;
65463;SDS011;52063;45.110;9.870;2022-07-10T10:09:06;2.85;;;1.02;;
65463;SDS011;52063;45.110;9.870;2022-07-10T10:11:36;2.65;;;1.20;;
65463;SDS011;52063;45.110;9.870;2022-07-10T10:14:04;2.57;;;1.40;;
65463;SDS011;52063;45.110;9.870;2022-07-10T10:16:32;5.70;;;1.30;;
65463;SDS011;52063;45.110;9.870;2022-07-10T10:18:58;3.38;;;1.27;;
65463;SDS011;52063;45.110;9.870;2022-07-10T10:21:43;4.63;;;1.23;;
65463;SDS011;52063;45.110;9.870;2022-07-10T10:24:08;2.83;;;1.27;;
65463;SDS011;52063;45.110;9.870;2022-07-10T10:26:35;4.40;;;1.08;;
65463;SDS011;52063;45.110;9.870;2022-07-10T10:29:01;3.30;;;1.10;;
65463;SDS011;52063;45.110;9.870;2022-07-10T10:31:27;2.65;;;1.15;;
65463;SDS011;52063;45.110;9.870;2022-07-10T10:33:54;3.58;;;0.95;;
65463;SDS011;52063;45.110;9.870;2022-07-10T10:39:15;2.83;;;1.15;;
65463;SDS011;52063;45.110;9.870;2022-07-10T10:41:48;3.63;;;1.00;;
65463;SDS011;52063;45.110;9.870;2022-07-10T10:49:18;3.43;;;0.70;;
65463;SDS011;52063;45.110;9.870;2022-07-10T10:54:27;2.58;;;0.90;;
65463;SDS011;52063;45.110;9.870;2022-07-10T10:57:12;1.55;;;0.90;;
65463;SDS011;52063;45.110;9.870;2022-07-10T10:59:54;1.20;;;0.80;;
65463;SDS011;52063;45.110;9.870;2022-07-10T11:02:27;3.83;;;1.10;;
65463;SDS011;52063;45.110;9.870;2022-07-10T11:07:57;2.75;;;1.25;;
65463;SDS011;52063;45.110;9.870;2022-07-10T11:13:02;4.38;;;1.38;;
65463;SDS011;52063;45.110;9.870;2022-07-10T11:15:29;2.37;;;1.00;;
65463;SDS011;52063;45.110;9.870;2022-07-10T11:18:14;3.28;;;1.00;;
65463;SDS011;52063;45.110;9.870;2022-07-10T11:20:41;3.95;;;1.20;;
65463;SDS011;52063;45.110;9.870;2022-07-10T11:23:16;1.75;;;1.10;;
65463;SDS011;52063;45.110;9.870;2022-07-10T11:31:16;3.95;;;0.70;;
65463;SDS011;52063;45.110;9.870;2022-07-10T11:33:42;2.42;;;1.00;;
65463;SDS011;52063;45.110;9.870;2022-07-10T11:36:13;2.47;;;0.80;;
65463;SDS011;52063;45.110;9.870;2022-07-10T11:38:40;3.85;;;0.82;;
65463;SDS011;52063;45.110;9.870;2022-07-10T11:41:16;1.03;;;0.93;;
65463;SDS011;52063;45.110;9.870;2022-07-10T11:43:47;3.40;;;1.00;;
65463;SDS011;52063;45.110;9.870;2022-07-10T11:46:14;3.50;;;1.00;;
65463;SDS011;52063;45.110;9.870;2022-07-10T11:48:39;2.30;;;0.95;;
65463;SDS011;52063;45.110;9.870;2022-07-10T11:51:22;2.87;;;0.70;;
65463;SDS011;52063;45.110;9.870;2022-07-10T11:56:19;6.18;;;1.00;;
65463;SDS011;52063;45.110;9.870;2022-07-10T12:01:46;2.63;;;0.82;;
65463;SDS011;52063;45.110;9.870;2022-07-10T12:04:17;1.40;;;0.90;;
65463;SDS011;52063;45.110;9.870;2022-07-10T12:06:45;4.55;;;0.98;;
65463;SDS011;52063;45.110;9.870;2022-07-10T12:09:16;2.85;;;0.82;;
65463;SDS011;52063;45.110;9.870;2022-07-10T12:11:42;2.78;;;0.90;;
65463;SDS011;52063;45.110;9.870;2022-07-10T12:14:10;2.55;;;0.90;;
65463;SDS011;52063;45.110;9.870;2022-07-10T12:16:36;3.43;;;1.30;;
65463;SDS011;52063;45.110;9.870;2022-07-10T12:19:02;2.58;;;1.10;;
65463;SDS011;52063;45.110;9.870;2022-07-10T12:21:28;1.60;;;1.17;;
65463;SDS011;52063;45.110;9.870;2022-07-10T12:23:54;3.30;;;0.82;;
65463;SDS011;52063;45.110;9.870;2022-07-10T12:26:20;3.30;;;1.00;;
65463;SDS011;52063;45.110;9.870;2022-07-10T12:31:21;3.25;;;1.15;;
65463;SDS011;52063;45.110;9.870;2022-07-10T12:33:51;2.38;;;1.20;;
65463;SDS011;52063;45.110;9.870;2022-07-10T12:36:22;2.45;;;1.00;;
65463;SDS011;52063;45.110;9.870;2022-07-10T12:38:55;1.92;;;0.80;;
65463;SDS011;52063;45.110;9.870;2022-07-10T12:41:23;3.30;;;1.10;;
65463;SDS011;52063;45.110;9.870;2022-07-10T12:43:50;4.40;;;0.73;;
65463;SDS011;52063;45.110;9.870;2022-07-10T12:51:46;1.35;;;0.95;;
65463;SDS011;52063;45.110;9.870;2022-07-10T12:56:58;1.30;;;0.60;;
65463;SDS011;52063;45.110;9.870;2022-07-10T12:59:24;1.15;;;0.60;;
65463;SDS011;52063;45.110;9.870;2022-07-10T13:01:50;3.33;;;0.80;;
65463;SDS011;52063;45.110;9.870;2022-07-10T13:04:22;3.63;;;0.93;;
65463;SDS011;52063;45.110;9.870;2022-07-10T13:06:48;1.42;;;0.80;;
65463;SDS011;52063;45.110;9.870;2022-07-10T13:09:18;1.57;;;0.80;;
65463;SDS011;52063;45.110;9.870;2022-07-10T13:11:48;1.60;;;0.80;;
65463;SDS011;52063;45.110;9.870;2022-07-10T13:14:14;1.20;;;0.73;;
65463;SDS011;52063;45.110;9.870;2022-07-10T13:16:40;3.87;;;0.73;;
65463;SDS011;52063;45.110;9.870;2022-07-10T13:19:06;3.90;;;0.95;;
65463;SDS011;52063;45.110;9.870;2022-07-10T13:21:32;1.43;;;0.70;;
65463;SDS011;52063;45.110;9.870;2022-07-10T13:23:57;2.20;;;0.70;;
65463;SDS011;52063;45.110;9.870;2022-07-10T13:26:23;1.20;;;0.80;;
65463;SDS011;52063;45.110;9.870;2022-07-10T13:28:48;2.67;;;0.67;;
65463;SDS011;52063;45.110;9.870;2022-07-10T13:31:13;0.95;;;0.70;;
65463;SDS011;52063;45.110;9.870;2022-07-10T13:33:39;2.30;;;0.80;;
65463;SDS011;52063;45.110;9.870;2022-07-10T13:36:05;1.00;;;0.68;;
65463;SDS011;52063;45.110;9.870;2022-07-10T13:38:31;2.33;;;0.60;;
65463;SDS011;52063;45.110;9.870;2022-07-10T13:40:57;1.63;;;0.70;;
65463;SDS011;52063;45.110;9.870;2022-07-10T13:43:23;0.85;;;0.50;;
65463;SDS011;52063;45.110;9.870;2022-07-10T13:45:56;3.17;;;0.80;;
65463;SDS011;52063;45.110;9.870;2022-07-10T13:48:22;1.75;;;0.60;;
65463;SDS011;52063;45.110;9.870;2022-07-10T13:50:47;2.50;;;0.70;;
65463;SDS011;52063;45.110;9.870;2022-07-10T13:53:14;2.13;;;0.60;;
65463;SDS011;52063;45.110;9.870;2022-07-10T13:55:40;4.85;;;0.93;;
65463;SDS011;52063;45.110;9.870;2022-07-10T13:58:06;1.10;;;0.53;;
65463;SDS011;52063;45.110;9.870;2022-07-10T14:00:31;0.95;;;0.70;;
65463;SDS011;52063;45.110;9.870;2022-07-10T14:02:57;1.00;;;0.60;;
65463;SDS011;52063;45.110;9.870;2022-07-10T14:05:23;1.50;;;0.80;;
65463;SDS011;52063;45.110;9.870;2022-07-10T14:07:49;1.00;;;0.70;;
65463;SDS011;52063;45.110;9.870;2022-07-10T14:10:15;2.63;;;0.52;;
65463;SDS011;52063;45.110;9.870;2022-07-10T14:12:41;1.48;;;0.60;;
65463;SDS011;52063;45.110;9.870;2022-07-10T14:15:07;1.15;;;0.77;;
65463;SDS011;52063;45.110;9.870;2022-07-10T14:17:33;0.97;;;0.60;;
65463;SDS011;52063;45.110;9.870;2022-07-10T14:19:58;2.00;;;0.70;;
65463;SDS011;52063;45.110;9.870;2022-07-10T14:22:24;1.50;;;0.60;;
65463;SDS011;52063;45.110;9.870;2022-07-10T14:24:50;1.93;;;0.80;;
65463;SDS011;52063;45.110;9.870;2022-07-10T14:27:16;1.67;;;0.50;;
65463;SDS011;52063;45.110;9.870;2022-07-10T14:29:42;0.90;;;0.63;;
65463;SDS011;52063;45.110;9.870;2022-07-10T14:32:08;1.23;;;0.67;;
65463;SDS011;52063;45.110;9.870;2022-07-10T14:34:33;1.75;;;0.77;;
65463;SDS011;52063;45.110;9.870;2022-07-10T14:36:59;1.00;;;0.60;;
65463;SDS011;52063;45.110;9.870;2022-07-10T14:39:25;1.23;;;0.50;;
65463;SDS011;52063;45.110;9.870;2022-07-10T14:41:50;1.63;;;0.60;;
65463;SDS011;52063;45.110;9.870;2022-07-10T14:44:16;2.30;;;0.63;;
65463;SDS011;52063;45.110;9.870;2022-07-10T14:46:41;0.80;;;0.53;;
65463;SDS011;52063;45.110;9.870;2022-07-10T14:49:08;4.57;;;0.80;;
65463;SDS011;52063;45.110;9.870;2022-07-10T14:51:34;6.40;;;0.70;;
65463;SDS011;52063;45.110;9.870;2022-07-10T14:54:04;1.52;;;0.63;;
65463;SDS011;52063;45.110;9.870;2022-07-10T14:56:29;3.23;;;0.57;;
65463;SDS011;52063;45.110;9.870;2022-07-10T14:58:55;3.17;;;0.80;;
65463;SDS011;52063;45.110;9.870;2022-07-10T15:01:20;2.17;;;0.50;;
65463;SDS011;52063;45.110;9.870;2022-07-10T15:03:46;1.00;;;0.47;;
65463;SDS011;52063;45.110;9.870;2022-07-10T15:06:11;1.17;;;0.50;;
65463;SDS011;52063;45.110;9.870;2022-07-10T15:08:37;3.30;;;0.50;;
65463;SDS011;52063;45.110;9.870;2022-07-10T15:11:02;0.70;;;0.50;;
65463;SDS011;52063;45.110;9.870;2022-07-10T15:13:30;3.50;;;0.60;;
65463;SDS011;52063;45.110;9.870;2022-07-10T15:15:55;1.73;;;0.60;;
65463;SDS011;52063;45.110;9.870;2022-07-10T15:18:21;1.13;;;0.73;;
65463;SDS011;52063;45.110;9.870;2022-07-10T15:20:46;2.03;;;0.63;;
65463;SDS011;52063;45.110;9.870;2022-07-10T15:23:12;1.98;;;0.70;;
65463;SDS011;52063;45.110;9.870;2022-07-10T15:25:38;2.37;;;0.67;;
65463;SDS011;52063;45.110;9.870;2022-07-10T15:28:08;1.10;;;0.57;;
65463;SDS011;52063;45.110;9.870;2022-07-10T15:30:34;1.55;;;0.68;;
65463;SDS011;52063;45.110;9.870;2022-07-10T15:33:00;1.10;;;0.50;;
65463;SDS011;52063;45.110;9.870;2022-07-10T15:35:26;1.10;;;0.60;;